^^
Meteo Knjazevac Station Historical Data
Daily Summary for March 9, 2021 Units:  Both    English   Metric
Daily Weekly Monthly Yearly Custom
  High: Low: Average:
Temperature: 94.5 °F /  34.7 °C 64.2 °F /  17.9 °C 78.2 °F /  25.7 °C
Dew Point: 74 °F /  23.3 °C 62.5 °F /  16.9 °C 68.5 °F /  20.3 °C
Humidity: 96% 49% 75%
Wind Speed: 6mph /  9.7km/h - 1.9mph /  3.1km/h
Wind Gust: 13mph /  20.9km/h - -
Wind- - SSE
Pressure: 30.19 in /  1022.2 hPa 30.04 in /  1017.2 hPa -
Precipitation: 0.00 in /  0 mm    
Historical Graphs
 
 
Tabular Data for March 9, 2021
Time Temperature Dew Point Pressure Wind Wind Speed Wind Gust Humidity Rainfall Rate (Hourly) solar Conditions
00:00 72.1 °F /  22.3 °C 67 °F /  19.4 °C 30.18in /  1021.9hPa SW 1mph /  1.6km/h 3mph /  4.8km/h 84% 0.00in /  0mm 0 W/m2
00:10 72 °F /  22.2 °C 66.9 °F /  19.4 °C 30.18in /  1021.9hPa SW 1mph /  1.6km/h 3mph /  4.8km/h 84% 0.00in /  0mm 0 W/m2
00:20 71.5 °F /  21.9 °C 66.4 °F /  19.1 °C 30.18in /  1021.9hPa SSE 2mph /  3.2km/h 5mph /  8km/h 84% 0.00in /  0mm 0 W/m2
00:30 71.2 °F /  21.8 °C 66.5 °F /  19.2 °C 30.18in /  1021.9hPa SW 1mph /  1.6km/h 5mph /  8km/h 85% 0.00in /  0mm 0 W/m2
00:40 70.9 °F /  21.6 °C 66.1 °F /  18.9 °C 30.19in /  1022.2hPa Calm   3mph /  4.8km/h 85% 0.00in /  0mm 0 W/m2
00:50 70.7 °F /  21.5 °C 66 °F /  18.9 °C 30.19in /  1022.2hPa NNE 1mph /  1.6km/h 2mph /  3.2km/h 85% 0.00in /  0mm 0 W/m2
01:00 70.5 °F /  21.4 °C 66.1 °F /  18.9 °C 30.19in /  1022.2hPa SE 2mph /  3.2km/h 3mph /  4.8km/h 86% 0.00in /  0mm 0 W/m2
01:10 70.3 °F /  21.3 °C 66 °F /  18.9 °C 30.19in /  1022.2hPa Calm   2mph /  3.2km/h 86% 0.00in /  0mm 0 W/m2
01:20 70.2 °F /  21.2 °C 65.8 °F /  18.8 °C 30.19in /  1022.2hPa Calm   1mph /  1.6km/h 86% 0.00in /  0mm 0 W/m2
01:30 70 °F /  21.1 °C 66.3 °F /  19.1 °C 30.19in /  1022.2hPa Calm   2mph /  3.2km/h 88% 0.00in /  0mm 0 W/m2
01:40 70 °F /  21.1 °C 66.3 °F /  19.1 °C 30.19in /  1022.2hPa NNW 1mph /  1.6km/h 3mph /  4.8km/h 88% 0.00in /  0mm 0 W/m2
01:50 69.5 °F /  20.8 °C 65.8 °F /  18.8 °C 30.19in /  1022.2hPa Calm   3mph /  4.8km/h 88% 0.00in /  0mm 0 W/m2
02:00 69.4 °F /  20.8 °C 65.7 °F /  18.7 °C 30.19in /  1022.2hPa Calm   2mph /  3.2km/h 88% 0.00in /  0mm 0 W/m2
02:10 69.3 °F /  20.7 °C 65.6 °F /  18.7 °C 30.19in /  1022.2hPa North 1mph /  1.6km/h 2mph /  3.2km/h 88% 0.00in /  0mm 0 W/m2
02:20 69.1 °F /  20.6 °C 65.7 °F /  18.7 °C 30.19in /  1022.2hPa Calm   2mph /  3.2km/h 89% 0.00in /  0mm 0 W/m2
02:30 68.7 °F /  20.4 °C 65.3 °F /  18.5 °C 30.19in /  1022.2hPa Calm   2mph /  3.2km/h 89% 0.00in /  0mm 0 W/m2
02:40 68.5 °F /  20.3 °C 65.2 °F /  18.4 °C 30.19in /  1022.2hPa Calm   1mph /  1.6km/h 89% 0.00in /  0mm 0 W/m2
02:50 68 °F /  20 °C 64.6 °F /  18.1 °C 30.19in /  1022.2hPa Calm   2mph /  3.2km/h 89% 0.00in /  0mm 0 W/m2
03:00 67.8 °F /  19.9 °C 64.8 °F /  18.2 °C 30.19in /  1022.2hPa Calm     90% 0.00in /  0mm 0 W/m2
03:10 67.6 °F /  19.8 °C 64.6 °F /  18.1 °C 30.19in /  1022.2hPa Calm   2mph /  3.2km/h 90% 0.00in /  0mm 0 W/m2
03:20 67.3 °F /  19.6 °C 64.3 °F /  17.9 °C 30.19in /  1022.2hPa Calm     90% 0.00in /  0mm 0 W/m2
03:30 67.2 °F /  19.6 °C 64.1 °F /  17.8 °C 30.19in /  1022.2hPa Calm   2mph /  3.2km/h 90% 0.00in /  0mm 0 W/m2
03:40 66.7 °F /  19.3 °C 64 °F /  17.8 °C 30.19in /  1022.2hPa Calm   2mph /  3.2km/h 91% 0.00in /  0mm 0 W/m2
03:50 66.6 °F /  19.2 °C 63.9 °F /  17.7 °C 30.19in /  1022.2hPa NNW 1mph /  1.6km/h 2mph /  3.2km/h 91% 0.00in /  0mm 0 W/m2
04:00 66.4 °F /  19.1 °C 63.7 °F /  17.6 °C 30.19in /  1022.2hPa NNW 1mph /  1.6km/h 2mph /  3.2km/h 91% 0.00in /  0mm 0 W/m2
04:10 66.2 °F /  19 °C 63.5 °F /  17.5 °C 30.19in /  1022.2hPa NNE 1mph /  1.6km/h 3mph /  4.8km/h 91% 0.00in /  0mm 0 W/m2
04:20 66.2 °F /  19 °C 64.1 °F /  17.8 °C 30.19in /  1022.2hPa NNE 1mph /  1.6km/h 4mph /  6.4km/h 93% 0.00in /  0mm 0 W/m2
04:30 65.9 °F /  18.8 °C 63.2 °F /  17.3 °C 30.19in /  1022.2hPa WNW 1mph /  1.6km/h 2mph /  3.2km/h 91% 0.00in /  0mm 0 W/m2
04:40 65.5 °F /  18.6 °C 63.4 °F /  17.4 °C 30.19in /  1022.2hPa Calm   2mph /  3.2km/h 93% 0.00in /  0mm 0 W/m2
04:50 65.1 °F /  18.4 °C 63.3 °F /  17.4 °C 30.19in /  1022.2hPa WNW 1mph /  1.6km/h 2mph /  3.2km/h 94% 0.00in /  0mm 0 W/m2
05:00 64.9 °F /  18.3 °C 62.9 °F /  17.2 °C 30.19in /  1022.2hPa Calm   1mph /  1.6km/h 93% 0.00in /  0mm 4 W/m2
05:10 64.9 °F /  18.3 °C 62.9 °F /  17.2 °C 30.19in /  1022.2hPa Calm   1mph /  1.6km/h 93% 0.00in /  0mm 9 W/m2
05:20 64.8 °F /  18.2 °C 63 °F /  17.2 °C 30.19in /  1022.2hPa Calm   2mph /  3.2km/h 94% 0.00in /  0mm 16 W/m2
05:30 64.6 °F /  18.1 °C 62.8 °F /  17.1 °C 30.19in /  1022.2hPa WNW 1mph /  1.6km/h 2mph /  3.2km/h 94% 0.00in /  0mm 25 W/m2
05:40 64.2 °F /  17.9 °C 62.5 °F /  16.9 °C 30.19in /  1022.2hPa West 1mph /  1.6km/h 2mph /  3.2km/h 94% 0.00in /  0mm 35 W/m2
05:50 64.2 °F /  17.9 °C 62.8 °F /  17.1 °C 30.19in /  1022.2hPa West 1mph /  1.6km/h 4mph /  6.4km/h 95% 0.00in /  0mm 45 W/m2
06:00 64.2 °F /  17.9 °C 62.8 °F /  17.1 °C 30.19in /  1022.2hPa West 1mph /  1.6km/h 3mph /  4.8km/h 95% 0.00in /  0mm 55 W/m2
06:10 64.2 °F /  17.9 °C 62.8 °F /  17.1 °C 30.19in /  1022.2hPa Calm   1mph /  1.6km/h 95% 0.00in /  0mm 94 W/m2
06:20 64.2 °F /  17.9 °C 62.8 °F /  17.1 °C 30.19in /  1022.2hPa Calm   1mph /  1.6km/h 95% 0.00in /  0mm 119 W/m2
06:30 64.4 °F /  18 °C 62.9 °F /  17.2 °C 30.19in /  1022.2hPa WSW 1mph /  1.6km/h 2mph /  3.2km/h 95% 0.00in /  0mm 145 W/m2
06:40 64.5 °F /  18.1 °C 63.1 °F /  17.3 °C 30.19in /  1022.2hPa West 1mph /  1.6km/h 2mph /  3.2km/h 95% 0.00in /  0mm 174 W/m2
06:50 64.8 °F /  18.2 °C 63.3 °F /  17.4 °C 30.19in /  1022.2hPa Calm   1mph /  1.6km/h 95% 0.00in /  0mm 200 W/m2
07:00 65.1 °F /  18.4 °C 64 °F /  17.8 °C 30.19in /  1022.2hPa ENE 1mph /  1.6km/h 4mph /  6.4km/h 96% 0.00in /  0mm 233 W/m2
07:10 65.8 °F /  18.8 °C 64.4 °F /  18 °C 30.19in /  1022.2hPa East 1mph /  1.6km/h 5mph /  8km/h 95% 0.00in /  0mm 265 W/m2
07:20 66.5 °F /  19.2 °C 65 °F /  18.3 °C 30.19in /  1022.2hPa NE 1mph /  1.6km/h 4mph /  6.4km/h 95% 0.00in /  0mm 303 W/m2
07:30 67.1 °F /  19.5 °C 65.3 °F /  18.5 °C 30.19in /  1022.2hPa Calm   4mph /  6.4km/h 94% 0.00in /  0mm 348 W/m2
07:40 67.6 °F /  19.8 °C 65.9 °F /  18.8 °C 30.19in /  1022.2hPa WNW 1mph /  1.6km/h 2mph /  3.2km/h 94% 0.00in /  0mm 382 W/m2
07:50 68.4 °F /  20.2 °C 66.3 °F /  19.1 °C 30.19in /  1022.2hPa Calm   3mph /  4.8km/h 93% 0.00in /  0mm 421 W/m2
08:00 68.9 °F /  20.5 °C 66.7 °F /  19.3 °C 30.19in /  1022.2hPa NW 1mph /  1.6km/h 5mph /  8km/h 93% 0.00in /  0mm 453 W/m2
08:10 69.6 °F /  20.9 °C 66.9 °F /  19.4 °C 30.19in /  1022.2hPa NNE 3mph /  4.8km/h 10mph /  16.1km/h 91% 0.00in /  0mm 495 W/m2
08:20 70.5 °F /  21.4 °C 67.4 °F /  19.7 °C 30.19in /  1022.2hPa NNE 2mph /  3.2km/h 5mph /  8km/h 90% 0.00in /  0mm 527 W/m2
08:30 71.4 °F /  21.9 °C 68 °F /  20 °C 30.18in /  1021.9hPa NNE 1mph /  1.6km/h 8mph /  12.9km/h 89% 0.00in /  0mm 559 W/m2
08:40 72.3 °F /  22.4 °C 68.5 °F /  20.3 °C 30.18in /  1021.9hPa ENE 2mph /  3.2km/h 7mph /  11.3km/h 88% 0.00in /  0mm 589 W/m2
08:50 73 °F /  22.8 °C 68.6 °F /  20.3 °C 30.18in /  1021.9hPa NE 1mph /  1.6km/h 6mph /  9.7km/h 86% 0.00in /  0mm 625 W/m2
09:00 74.4 °F /  23.6 °C 69.6 °F /  20.9 °C 30.17in /  1021.6hPa NNE 2mph /  3.2km/h 6mph /  9.7km/h 85% 0.00in /  0mm 652 W/m2
09:10 76.2 °F /  24.6 °C 70.7 °F /  21.5 °C 30.17in /  1021.6hPa North 1mph /  1.6km/h 5mph /  8km/h 83% 0.00in /  0mm 679 W/m2
09:20 77.7 °F /  25.4 °C 71.1 °F /  21.7 °C 30.17in /  1021.6hPa North 2mph /  3.2km/h 5mph /  8km/h 80% 0.00in /  0mm 705 W/m2
09:30 79.3 °F /  26.3 °C 71.8 °F /  22.1 °C 30.17in /  1021.6hPa NNE 2mph /  3.2km/h 5mph /  8km/h 78% 0.00in /  0mm 730 W/m2
09:40 80.6 °F /  27 °C 71.5 °F /  21.9 °C 30.16in /  1021.2hPa NE 1mph /  1.6km/h 5mph /  8km/h 74% 0.00in /  0mm 754 W/m2
09:50 81.8 °F /  27.7 °C 71.9 °F /  22.2 °C 30.16in /  1021.2hPa NE 2mph /  3.2km/h 7mph /  11.3km/h 72% 0.00in /  0mm 776 W/m2
10:00 82.2 °F /  27.9 °C 71.5 °F /  21.9 °C 30.16in /  1021.2hPa NE 1mph /  1.6km/h 5mph /  8km/h 70% 0.00in /  0mm 798 W/m2
10:10 83.3 °F /  28.5 °C 72 °F /  22.2 °C 30.16in /  1021.2hPa SW 3mph /  4.8km/h 6mph /  9.7km/h 69% 0.00in /  0mm 819 W/m2
10:20 84 °F /  28.9 °C 72.3 °F /  22.4 °C 30.15in /  1020.9hPa South 2mph /  3.2km/h 7mph /  11.3km/h 68% 0.00in /  0mm 838 W/m2
10:30 84.7 °F /  29.3 °C 71.7 °F /  22.1 °C 30.15in /  1020.9hPa NNW 3mph /  4.8km/h 6mph /  9.7km/h 65% 0.00in /  0mm 857 W/m2
10:40 85.5 °F /  29.7 °C 71.9 °F /  22.2 °C 30.15in /  1020.9hPa North 3mph /  4.8km/h 9mph /  14.5km/h 64% 0.00in /  0mm 874 W/m2
10:50 86 °F /  30 °C 72.4 °F /  22.4 °C 30.15in /  1020.9hPa North 5mph /  8km/h 10mph /  16.1km/h 64% 0.00in /  0mm 202 W/m2
11:00 86.9 °F /  30.5 °C 72.3 °F /  22.4 °C 30.14in /  1020.5hPa North 2mph /  3.2km/h 11mph /  17.7km/h 62% 0.00in /  0mm 904 W/m2
11:10 87.1 °F /  30.6 °C 71.5 °F /  21.9 °C 30.14in /  1020.5hPa North 3mph /  4.8km/h 10mph /  16.1km/h 60% 0.00in /  0mm 917 W/m2
11:20 87.2 °F /  30.7 °C 71.6 °F /  22 °C 30.13in /  1020.2hPa NW 3mph /  4.8km/h 8mph /  12.9km/h 60% 0.00in /  0mm 263 W/m2
11:30 88.1 °F /  31.2 °C 72.5 °F /  22.5 °C 30.13in /  1020.2hPa North 2mph /  3.2km/h 10mph /  16.1km/h 60% 0.00in /  0mm 939 W/m2
11:40 88.7 °F /  31.5 °C 72 °F /  22.2 °C 30.13in /  1020.2hPa North 5mph /  8km/h 10mph /  16.1km/h 58% 0.00in /  0mm 948 W/m2
11:50 88.9 °F /  31.6 °C 71.7 °F /  22.1 °C 30.13in /  1020.2hPa NNE 5mph /  8km/h 9mph /  14.5km/h 57% 0.00in /  0mm 955 W/m2
12:00 89.1 °F /  31.7 °C 71.8 °F /  22.1 °C 30.12in /  1019.9hPa North 2mph /  3.2km/h 8mph /  12.9km/h 57% 0.00in /  0mm 961 W/m2
12:10 89.4 °F /  31.9 °C 71.1 °F /  21.7 °C 30.12in /  1019.9hPa North 3mph /  4.8km/h 8mph /  12.9km/h 55% 0.00in /  0mm 965 W/m2
12:20 89.4 °F /  31.9 °C 72.2 °F /  22.3 °C 30.12in /  1019.9hPa NNW 2mph /  3.2km/h 7mph /  11.3km/h 57% 0.00in /  0mm 968 W/m2
12:30 89.9 °F /  32.2 °C 73.2 °F /  22.9 °C 30.11in /  1019.5hPa North 5mph /  8km/h 8mph /  12.9km/h 58% 0.00in /  0mm 474 W/m2
12:40 90.5 °F /  32.5 °C 72.1 °F /  22.3 °C 30.11in /  1019.5hPa North 6mph /  9.7km/h 10mph /  16.1km/h 55% 0.00in /  0mm 553 W/m2
12:50 90.6 °F /  32.6 °C 73.3 °F /  22.9 °C 30.10in /  1019.2hPa NNW 6mph /  9.7km/h 12mph /  19.3km/h 57% 0.00in /  0mm 896 W/m2
13:00 91 °F /  32.8 °C 72.6 °F /  22.6 °C 30.10in /  1019.2hPa North 6mph /  9.7km/h 13mph /  20.9km/h 55% 0.00in /  0mm 395 W/m2
13:10 91 °F /  32.8 °C 72.6 °F /  22.6 °C 30.10in /  1019.2hPa North 3mph /  4.8km/h 12mph /  19.3km/h 55% 0.00in /  0mm 960 W/m2
13:20 91.7 °F /  33.2 °C 73.3 °F /  22.9 °C 30.10in /  1019.2hPa North 5mph /  8km/h 9mph /  14.5km/h 55% 0.00in /  0mm 954 W/m2
13:30 92.3 °F /  33.5 °C 73.2 °F /  22.9 °C 30.09in /  1018.8hPa NNE 3mph /  4.8km/h 8mph /  12.9km/h 54% 0.00in /  0mm 946 W/m2
13:40 92.5 °F /  33.6 °C 73.4 °F /  23 °C 30.09in /  1018.8hPa NNE 3mph /  4.8km/h 13mph /  20.9km/h 54% 0.00in /  0mm 937 W/m2
13:50 92.8 °F /  33.8 °C 73.7 °F /  23.2 °C 30.09in /  1018.8hPa North 5mph /  8km/h 8mph /  12.9km/h 54% 0.00in /  0mm 926 W/m2
14:00 93.2 °F /  34 °C 73.5 °F /  23.1 °C 30.09in /  1018.8hPa North 2mph /  3.2km/h 8mph /  12.9km/h 53% 0.00in /  0mm 914 W/m2
14:10 93.4 °F /  34.1 °C 73.1 °F /  22.8 °C 30.08in /  1018.5hPa NNE 6mph /  9.7km/h 13mph /  20.9km/h 52% 0.00in /  0mm 901 W/m2
14:20 93.2 °F /  34 °C 73.5 °F /  23.1 °C 30.08in /  1018.5hPa North 3mph /  4.8km/h 12mph /  19.3km/h 53% 0.00in /  0mm 886 W/m2
14:30 93.7 °F /  34.3 °C 73.4 °F /  23 °C 30.08in /  1018.5hPa North 5mph /  8km/h 12mph /  19.3km/h 52% 0.00in /  0mm 870 W/m2
14:40 93.6 °F /  34.2 °C 73.3 °F /  22.9 °C 30.08in /  1018.5hPa North 3mph /  4.8km/h 11mph /  17.7km/h 52% 0.00in /  0mm 853 W/m2
14:50 93.9 °F /  34.4 °C 72.5 °F /  22.5 °C 30.07in /  1018.2hPa North 5mph /  8km/h 10mph /  16.1km/h 50% 0.00in /  0mm 834 W/m2
15:00 94.3 °F /  34.6 °C 74 °F /  23.3 °C 30.07in /  1018.2hPa North 2mph /  3.2km/h 9mph /  14.5km/h 52% 0.00in /  0mm 815 W/m2
15:10 94.3 °F /  34.6 °C 72.8 °F /  22.7 °C 30.06in /  1017.8hPa North 5mph /  8km/h 10mph /  16.1km/h 50% 0.00in /  0mm 794 W/m2
15:20 94.4 °F /  34.7 °C 72.9 °F /  22.7 °C 30.06in /  1017.8hPa North 2mph /  3.2km/h 9mph /  14.5km/h 50% 0.00in /  0mm 772 W/m2
15:30 94.5 °F /  34.7 °C 72.9 °F /  22.7 °C 30.06in /  1017.8hPa North 2mph /  3.2km/h 12mph /  19.3km/h 50% 0.00in /  0mm 749 W/m2
15:40 94.3 °F /  34.6 °C 72.8 °F /  22.7 °C 30.06in /  1017.8hPa ENE 3mph /  4.8km/h 9mph /  14.5km/h 50% 0.00in /  0mm 724 W/m2
15:50 94.3 °F /  34.6 °C 72.2 °F /  22.3 °C 30.06in /  1017.8hPa NE 3mph /  4.8km/h 8mph /  12.9km/h 49% 0.00in /  0mm 699 W/m2
16:00 94.3 °F /  34.6 °C 72.8 °F /  22.7 °C 30.06in /  1017.8hPa North 5mph /  8km/h 12mph /  19.3km/h 50% 0.00in /  0mm 673 W/m2
16:10 94.3 °F /  34.6 °C 72.8 °F /  22.7 °C 30.06in /  1017.8hPa NNE 3mph /  4.8km/h 9mph /  14.5km/h 50% 0.00in /  0mm 647 W/m2
16:20 94.3 °F /  34.6 °C 72.8 °F /  22.7 °C 30.06in /  1017.8hPa NNW 2mph /  3.2km/h 9mph /  14.5km/h 50% 0.00in /  0mm 619 W/m2
16:30 94.1 °F /  34.5 °C 72 °F /  22.2 °C 30.06in /  1017.8hPa NNE 3mph /  4.8km/h 8mph /  12.9km/h 49% 0.00in /  0mm 591 W/m2
16:40 94.1 °F /  34.5 °C 72.6 °F /  22.6 °C 30.05in /  1017.5hPa ENE 2mph /  3.2km/h 10mph /  16.1km/h 50% 0.00in /  0mm 562 W/m2
16:50 93.6 °F /  34.2 °C 71.5 °F /  21.9 °C 30.05in /  1017.5hPa ENE 3mph /  4.8km/h 12mph /  19.3km/h 49% 0.00in /  0mm 533 W/m2
17:00 93.2 °F /  34 °C 71.2 °F /  21.8 °C 30.04in /  1017.2hPa ENE 5mph /  8km/h 13mph /  20.9km/h 49% 0.00in /  0mm 503 W/m2
17:10 92.8 °F /  33.8 °C 71.5 °F /  21.9 °C 30.04in /  1017.2hPa NE 3mph /  4.8km/h 10mph /  16.1km/h 50% 0.00in /  0mm 345 W/m2
Knjazevac, Serbia
Compliments of Weather Underground - 2 mb